Time;durP1;ratioP1;P1;durP2;ratioP2;P2;SDS_P1;SDS_P2;PMS_P1;PMS_P2;Temp;Humidity;BMP_temperature;BMP_pressure;BME280_temperature;BME280_humidity;BME280_pressure;Samples;Min_cycle;Max_cycle;Signal;HPM_P1;HPM_P2
2022/06/14 00:01:04;;;;;;;4.85;1.38;;;;;;;;;;4917362;29;20052;-77
2022/06/14 00:03:33;;;;;;;1.92;1.10;;;;;;;;;;4917937;29;20047;-76
2022/06/14 00:06:02;;;;;;;10.02;1.50;;;;;;;;;;4917333;29;20040;-77
2022/06/14 00:08:28;;;;;;;5.97;2.35;;;;;;;;;;4916413;29;20052;-74
2022/06/14 00:10:56;;;;;;;4.13;1.20;;;;;;;;;;4916693;29;20063;-75
2022/06/14 00:13:22;;;;;;;2.88;1.10;;;;;;;;;;4917859;29;20036;-75
2022/06/14 00:15:48;;;;;;;3.30;1.15;;;;;;;;;;4917722;29;20020;-75
2022/06/14 00:18:15;;;;;;;2.90;1.10;;;;;;;;;;4918656;29;20041;-75
2022/06/14 00:20:41;;;;;;;4.65;0.90;;;;;;;;;;4903958;29;20485;-76
2022/06/14 00:23:07;;;;;;;4.05;1.20;;;;;;;;;;4916151;29;20041;-75
2022/06/14 00:25:37;;;;;;;3.95;0.98;;;;;;;;;;4899145;29;20092;-74
2022/06/14 00:28:05;;;;;;;2.63;0.98;;;;;;;;;;4898649;29;20028;-76
2022/06/14 00:30:31;;;;;;;2.60;1.00;;;;;;;;;;4919034;29;20043;-75
2022/06/14 00:32:57;;;;;;;3.95;1.27;;;;;;;;;;4915530;29;20115;-77
2022/06/14 00:35:22;;;;;;;2.65;1.00;;;;;;;;;;4914191;29;20036;-76
2022/06/14 00:37:49;;;;;;;1.58;0.88;;;;;;;;;;4913981;29;20039;-76
2022/06/14 00:40:17;;;;;;;4.15;1.15;;;;;;;;;;4912199;29;20154;-75
2022/06/14 00:42:43;;;;;;;2.92;1.10;;;;;;;;;;4914374;29;20400;-76
2022/06/14 00:45:11;;;;;;;3.25;1.33;;;;;;;;;;4914880;29;20047;-75
2022/06/14 00:47:50;;;;;;;4.18;1.20;;;;;;;;;;4914893;29;20067;-75
2022/06/14 00:50:20;;;;;;;3.78;1.00;;;;;;;;;;4917275;29;20055;-77
2022/06/14 00:52:51;;;;;;;4.13;1.52;;;;;;;;;;4914272;29;20461;-76
2022/06/14 00:55:24;;;;;;;1.88;0.90;;;;;;;;;;4919248;29;20384;-75
2022/06/14 00:57:59;;;;;;;3.45;1.20;;;;;;;;;;4914246;29;20032;-75
2022/06/14 01:00:31;;;;;;;3.47;0.98;;;;;;;;;;4914934;29;20471;-76
2022/06/14 01:03:01;;;;;;;3.03;1.20;;;;;;;;;;4907269;29;20036;-75
2022/06/14 01:06:06;;;;;;;2.70;1.00;;;;;;;;;;4911162;29;20138;-74
2022/06/14 01:08:42;;;;;;;3.38;1.10;;;;;;;;;;4912825;29;20417;-74
2022/06/14 01:11:12;;;;;;;5.90;1.33;;;;;;;;;;4911702;29;20760;-75
2022/06/14 01:13:39;;;;;;;2.53;1.00;;;;;;;;;;4916188;29;20032;-74
2022/06/14 01:16:05;;;;;;;1.90;1.00;;;;;;;;;;4915168;29;20028;-75
2022/06/14 01:18:31;;;;;;;6.78;1.15;;;;;;;;;;4913448;29;20047;-75
2022/06/14 01:20:56;;;;;;;2.05;1.00;;;;;;;;;;4898306;29;20068;-74
2022/06/14 01:23:22;;;;;;;4.68;1.08;;;;;;;;;;4914549;29;20123;-75
2022/06/14 01:25:52;;;;;;;4.63;1.17;;;;;;;;;;4914831;29;20040;-75
2022/06/14 01:28:21;;;;;;;3.00;1.00;;;;;;;;;;4901915;29;20027;-75
2022/06/14 01:30:51;;;;;;;2.28;1.13;;;;;;;;;;4916733;29;20062;-75
2022/06/14 01:33:24;;;;;;;4.85;1.25;;;;;;;;;;4917251;29;20032;-75
2022/06/14 01:36:00;;;;;;;2.33;1.20;;;;;;;;;;4915656;29;20087;-75
2022/06/14 01:38:26;;;;;;;2.53;1.13;;;;;;;;;;4913359;29;20158;-75
2022/06/14 01:41:10;;;;;;;3.85;1.73;;;;;;;;;;4914870;29;20520;-75
2022/06/14 01:44:04;;;;;;;1.98;1.00;;;;;;;;;;4917984;29;20042;-75
2022/06/14 01:46:40;;;;;;;1.17;1.00;;;;;;;;;;4909034;29;20032;-76
2022/06/14 01:52:25;;;;;;;8.30;1.30;;;;;;;;;;4907443;29;20520;-76
2022/06/14 01:54:56;;;;;;;4.18;1.10;;;;;;;;;;4910585;29;20078;-75
2022/06/14 01:57:35;;;;;;;3.72;1.00;;;;;;;;;;4912709;29;20036;-76
2022/06/14 02:00:00;;;;;;;5.38;1.20;;;;;;;;;;4913358;29;20043;-75
2022/06/14 02:02:32;;;;;;;4.10;1.20;;;;;;;;;;4912923;29;20045;-77
2022/06/14 02:05:25;;;;;;;3.85;1.10;;;;;;;;;;4915195;29;20036;-76
2022/06/14 02:07:56;;;;;;;6.03;1.35;;;;;;;;;;4900665;29;20131;-76
2022/06/14 02:10:40;;;;;;;2.88;0.98;;;;;;;;;;4915153;29;20032;-76
2022/06/14 02:13:24;;;;;;;6.47;1.42;;;;;;;;;;4915016;29;20067;-78
2022/06/14 02:16:07;;;;;;;4.45;1.23;;;;;;;;;;4913597;29;20075;-76
2022/06/14 02:18:33;;;;;;;2.47;1.00;;;;;;;;;;4911612;29;20028;-77
2022/06/14 02:21:11;;;;;;;1.77;1.15;;;;;;;;;;4915444;29;20055;-75
2022/06/14 02:24:01;;;;;;;2.08;0.98;;;;;;;;;;4913052;29;20062;-75
2022/06/14 02:26:33;;;;;;;2.65;1.25;;;;;;;;;;4915189;29;20285;-77
2022/06/14 02:29:28;;;;;;;5.35;1.10;;;;;;;;;;4912426;29;20527;-74
2022/06/14 02:32:02;;;;;;;6.18;1.17;;;;;;;;;;4911523;29;20099;-76
2022/06/14 02:34:33;;;;;;;3.25;1.20;;;;;;;;;;4915245;29;20099;-77
2022/06/14 02:37:10;;;;;;;2.85;1.20;;;;;;;;;;4914271;29;20031;-73
2022/06/14 02:39:49;;;;;;;2.22;1.58;;;;;;;;;;4914092;29;20036;-73
2022/06/14 02:42:15;;;;;;;4.13;1.65;;;;;;;;;;4913340;29;20066;-73
2022/06/14 02:44:49;;;;;;;3.50;1.40;;;;;;;;;;4911244;29;20036;-73
2022/06/14 02:47:23;;;;;;;5.72;1.45;;;;;;;;;;4899088;29;20465;-73
2022/06/14 02:50:04;;;;;;;5.30;1.65;;;;;;;;;;4913377;29;20047;-74
2022/06/14 02:52:36;;;;;;;7.03;1.50;;;;;;;;;;4912539;29;20043;-73
2022/06/14 02:55:17;;;;;;;2.77;1.40;;;;;;;;;;4911647;29;20032;-73
2022/06/14 02:57:55;;;;;;;3.20;1.40;;;;;;;;;;4914472;29;20487;-73
2022/06/14 03:00:24;;;;;;;4.82;1.60;;;;;;;;;;4911872;29;20519;-74
2022/06/14 03:03:13;;;;;;;6.15;1.50;;;;;;;;;;4914702;29;20036;-73
2022/06/14 03:06:07;;;;;;;4.82;1.60;;;;;;;;;;4913861;29;20032;-73
2022/06/14 03:08:44;;;;;;;3.78;1.40;;;;;;;;;;4885787;29;20151;-73
2022/06/14 03:11:28;;;;;;;2.13;1.33;;;;;;;;;;4912126;29;20268;-73
2022/06/14 03:14:01;;;;;;;4.90;1.52;;;;;;;;;;4909982;29;20556;-72
2022/06/14 03:16:55;;;;;;;3.88;1.60;;;;;;;;;;4913454;29;20436;-74
2022/06/14 03:19:58;;;;;;;5.60;1.75;;;;;;;;;;4913574;29;20451;-74
2022/06/14 03:22:43;;;;;;;5.45;1.38;;;;;;;;;;4911814;29;20028;-74
2022/06/14 03:25:28;;;;;;;5.00;1.60;;;;;;;;;;4913683;29;20028;-74
2022/06/14 03:28:03;;;;;;;4.35;1.70;;;;;;;;;;4913043;29;20040;-73
2022/06/14 03:30:37;;;;;;;4.13;1.50;;;;;;;;;;4916444;29;20032;-72
2022/06/14 03:33:15;;;;;;;6.57;1.70;;;;;;;;;;4918051;29;20040;-74
2022/06/14 03:35:47;;;;;;;4.45;1.60;;;;;;;;;;4916922;29;20036;-74
2022/06/14 03:38:17;;;;;;;4.82;1.70;;;;;;;;;;4898352;29;20040;-74
2022/06/14 03:40:44;;;;;;;4.40;1.80;;;;;;;;;;4916356;29;20526;-73
2022/06/14 03:43:11;;;;;;;5.93;1.73;;;;;;;;;;4915155;29;20087;-72
2022/06/14 03:45:49;;;;;;;4.68;1.80;;;;;;;;;;4915740;29;20055;-73
2022/06/14 03:48:15;;;;;;;4.05;1.65;;;;;;;;;;4901501;29;20040;-73
2022/06/14 03:50:50;;;;;;;3.38;1.55;;;;;;;;;;4915367;29;20040;-73
2022/06/14 03:53:41;;;;;;;5.05;1.73;;;;;;;;;;4919028;29;20044;-74
2022/06/14 03:56:20;;;;;;;5.70;1.50;;;;;;;;;;4917759;29;20036;-73
2022/06/14 03:58:54;;;;;;;4.05;1.80;;;;;;;;;;4917132;29;20048;-73
2022/06/14 04:01:26;;;;;;;4.22;1.50;;;;;;;;;;4918351;29;20035;-73
2022/06/14 04:04:07;;;;;;;4.90;1.70;;;;;;;;;;4919571;29;20052;-73
2022/06/14 04:07:13;;;;;;;2.05;1.45;;;;;;;;;;4915432;29;20040;-73
2022/06/14 04:09:48;;;;;;;5.07;2.03;;;;;;;;;;4914888;29;20044;-74
2022/06/14 04:12:20;;;;;;;3.28;1.50;;;;;;;;;;4913321;29;20433;-75
2022/06/14 04:15:39;;;;;;;4.70;1.70;;;;;;;;;;4915734;29;20397;-72
2022/06/14 04:18:35;;;;;;;4.00;1.67;;;;;;;;;;4885948;29;20072;-73
2022/06/14 04:21:13;;;;;;;4.78;1.90;;;;;;;;;;4918694;29;20043;-73
2022/06/14 04:24:00;;;;;;;7.32;2.40;;;;;;;;;;4914289;29;20035;-74
2022/06/14 04:26:45;;;;;;;5.03;2.10;;;;;;;;;;4917058;29;20123;-75
2022/06/14 04:29:26;;;;;;;9.60;2.47;;;;;;;;;;4914657;29;20063;-72
2022/06/14 04:32:03;;;;;;;6.90;2.53;;;;;;;;;;4919154;29;20580;-73
2022/06/14 04:34:35;;;;;;;7.13;2.63;;;;;;;;;;4915683;29;20027;-73
2022/06/14 04:37:08;;;;;;;6.15;2.58;;;;;;;;;;4915146;29;20444;-73
2022/06/14 04:39:42;;;;;;;8.88;2.30;;;;;;;;;;4912772;29;20035;-74
2022/06/14 04:42:12;;;;;;;5.35;2.05;;;;;;;;;;4914497;29;20099;-75
2022/06/14 04:44:54;;;;;;;6.10;2.28;;;;;;;;;;4914364;29;20563;-73
2022/06/14 04:47:30;;;;;;;6.18;2.25;;;;;;;;;;4914695;29;20032;-74
2022/06/14 04:50:04;;;;;;;4.10;2.55;;;;;;;;;;4913569;29;20405;-74
2022/06/14 04:52:36;;;;;;;6.43;2.45;;;;;;;;;;4915312;29;20481;-74
2022/06/14 04:55:09;;;;;;;6.82;2.80;;;;;;;;;;4916542;29;20032;-74
2022/06/14 04:57:44;;;;;;;5.03;2.22;;;;;;;;;;4912828;29;20044;-74
2022/06/14 05:00:13;;;;;;;3.35;1.85;;;;;;;;;;4914122;29;20032;-73
2022/06/14 05:02:48;;;;;;;4.57;1.85;;;;;;;;;;4915051;29;20032;-73
2022/06/14 05:05:27;;;;;;;5.13;1.77;;;;;;;;;;4914467;29;20804;-72
2022/06/14 05:07:59;;;;;;;6.53;1.92;;;;;;;;;;4916073;29;20064;-74
2022/06/14 05:10:33;;;;;;;4.93;1.80;;;;;;;;;;4914791;29;20134;-73
2022/06/14 05:13:20;;;;;;;6.47;2.00;;;;;;;;;;4915593;29;20023;-73
2022/06/14 05:15:51;;;;;;;4.75;1.63;;;;;;;;;;4914656;29;20040;-72
2022/06/14 05:18:27;;;;;;;5.03;1.85;;;;;;;;;;4915552;29;20032;-71
2022/06/14 05:21:03;;;;;;;5.65;1.50;;;;;;;;;;4899602;29;20044;-72
2022/06/14 05:23:44;;;;;;;7.13;2.47;;;;;;;;;;4912575;29;20496;-74
2022/06/14 05:26:22;;;;;;;8.13;2.10;;;;;;;;;;4916160;29;20043;-73
2022/06/14 05:29:17;;;;;;;5.28;2.38;;;;;;;;;;4913658;29;20044;-73
2022/06/14 05:31:51;;;;;;;3.85;1.50;;;;;;;;;;4912219;29;20121;-72
2022/06/14 05:34:40;;;;;;;4.47;2.30;;;;;;;;;;4914482;29;20099;-73
2022/06/14 05:37:18;;;;;;;4.03;1.63;;;;;;;;;;4913998;29;20106;-73
2022/06/14 05:40:10;;;;;;;3.70;1.63;;;;;;;;;;4913584;29;20047;-74
2022/06/14 05:42:45;;;;;;;4.53;1.70;;;;;;;;;;4912012;29;20058;-73
2022/06/14 05:45:12;;;;;;;5.35;1.38;;;;;;;;;;4913753;29;20068;-73
2022/06/14 05:47:43;;;;;;;4.75;1.55;;;;;;;;;;4911637;29;20047;-73
2022/06/14 05:50:18;;;;;;;7.57;1.95;;;;;;;;;;4914809;29;20050;-73
2022/06/14 05:53:22;;;;;;;3.13;1.48;;;;;;;;;;4913751;29;20044;-74
2022/06/14 05:55:52;;;;;;;4.78;1.40;;;;;;;;;;4892651;29;20039;-73
2022/06/14 05:58:29;;;;;;;6.18;1.77;;;;;;;;;;4915699;29;20016;-74
2022/06/14 06:01:09;;;;;;;4.82;1.60;;;;;;;;;;4913356;29;20146;-74
2022/06/14 06:03:40;;;;;;;6.93;1.70;;;;;;;;;;4908914;29;20462;-73
2022/06/14 06:06:09;;;;;;;4.25;1.58;;;;;;;;;;4912149;29;20249;-73
2022/06/14 06:08:49;;;;;;;3.40;1.27;;;;;;;;;;4910546;29;20044;-74
2022/06/14 06:11:39;;;;;;;4.57;1.25;;;;;;;;;;4910566;29;20048;-73
2022/06/14 06:14:17;;;;;;;6.20;1.23;;;;;;;;;;4913747;29;20033;-72
2022/06/14 06:19:23;;;;;;;8.98;1.38;;;;;;;;;;4916155;29;20024;-75
2022/06/14 06:21:53;;;;;;;7.32;1.52;;;;;;;;;;4914963;29;20103;-73
2022/06/14 06:24:29;;;;;;;6.88;1.50;;;;;;;;;;4911603;29;20583;-73
2022/06/14 06:27:08;;;;;;;5.22;1.33;;;;;;;;;;4911133;29;20055;-74
2022/06/14 06:29:39;;;;;;;4.35;1.27;;;;;;;;;;4916705;29;20508;-74
2022/06/14 06:32:07;;;;;;;4.45;1.25;;;;;;;;;;4915103;29;20040;-75
2022/06/14 06:34:33;;;;;;;4.35;1.17;;;;;;;;;;4911952;29;20036;-73
2022/06/14 06:37:09;;;;;;;4.80;1.40;;;;;;;;;;4914682;29;20059;-74
2022/06/14 06:39:51;;;;;;;2.47;1.10;;;;;;;;;;4911269;29;20043;-73
2022/06/14 06:42:31;;;;;;;3.63;1.30;;;;;;;;;;4912111;29;20512;-74
2022/06/14 06:45:16;;;;;;;2.40;1.00;;;;;;;;;;4911655;29;20056;-74
2022/06/14 06:48:00;;;;;;;2.28;1.08;;;;;;;;;;4910618;29;20508;-74
2022/06/14 06:50:35;;;;;;;8.07;1.40;;;;;;;;;;4895275;29;20039;-74
2022/06/14 06:53:03;;;;;;;5.28;1.30;;;;;;;;;;4911600;29;20437;-74
2022/06/14 06:55:34;;;;;;;5.90;1.33;;;;;;;;;;4914812;29;20051;-73
2022/06/14 06:58:04;;;;;;;3.90;1.42;;;;;;;;;;4909696;29;20028;-73
2022/06/14 07:00:32;;;;;;;5.07;1.20;;;;;;;;;;4911982;29;20040;-73
2022/06/14 07:03:04;;;;;;;3.70;1.50;;;;;;;;;;4914009;29;20078;-74
2022/06/14 07:05:29;;;;;;;8.13;2.45;;;;;;;;;;4899366;29;20043;-73
2022/06/14 07:08:09;;;;;;;9.15;2.08;;;;;;;;;;4920312;29;20040;-73
2022/06/14 07:10:44;;;;;;;5.10;1.20;;;;;;;;;;4918133;29;20123;-71
2022/06/14 07:13:15;;;;;;;10.82;2.85;;;;;;;;;;4916078;29;20028;-74
2022/06/14 07:16:05;;;;;;;3.90;1.38;;;;;;;;;;4917362;29;20504;-73
2022/06/14 07:18:45;;;;;;;10.43;1.30;;;;;;;;;;4920576;29;20108;-74
2022/06/14 07:21:33;;;;;;;10.52;1.20;;;;;;;;;;4919974;29;20445;-73
2022/06/14 07:24:23;;;;;;;8.60;1.38;;;;;;;;;;4917718;29;21222;-74
2022/06/14 07:27:03;;;;;;;7.68;1.33;;;;;;;;;;4919025;29;20631;-73
2022/06/14 07:29:38;;;;;;;7.95;1.67;;;;;;;;;;4919576;29;20123;-73
2022/06/14 07:32:12;;;;;;;14.07;1.20;;;;;;;;;;4918735;29;20083;-74
2022/06/14 07:34:39;;;;;;;5.65;2.03;;;;;;;;;;4917011;29;20035;-74
2022/06/14 07:37:11;;;;;;;11.38;1.05;;;;;;;;;;4918520;29;20103;-73
2022/06/14 07:40:05;;;;;;;6.03;1.10;;;;;;;;;;4917228;29;20039;-74
2022/06/14 07:42:43;;;;;;;4.07;1.52;;;;;;;;;;4918684;29;20071;-74
2022/06/14 07:45:08;;;;;;;6.85;1.58;;;;;;;;;;4917126;29;20043;-74
2022/06/14 07:47:49;;;;;;;4.88;1.00;;;;;;;;;;4919532;29;20484;-73
2022/06/14 07:50:17;;;;;;;5.80;1.55;;;;;;;;;;4920700;29;20475;-74
2022/06/14 07:53:17;;;;;;;9.60;1.70;;;;;;;;;;4916454;29;20072;-74
2022/06/14 07:55:50;;;;;;;6.13;1.10;;;;;;;;;;4877973;29;20052;-74
2022/06/14 07:58:24;;;;;;;7.15;1.23;;;;;;;;;;4915994;29;20403;-73
2022/06/14 08:01:08;;;;;;;3.40;1.13;;;;;;;;;;4923590;29;20103;-72
2022/06/14 08:04:03;;;;;;;7.47;1.52;;;;;;;;;;4922634;29;20115;-74
2022/06/14 08:06:33;;;;;;;6.28;2.30;;;;;;;;;;4917841;29;20043;-73
2022/06/14 08:09:15;;;;;;;5.70;1.42;;;;;;;;;;4916497;29;20036;-73
2022/06/14 08:11:50;;;;;;;3.85;1.40;;;;;;;;;;4903454;29;20035;-73
2022/06/14 08:14:27;;;;;;;7.35;1.10;;;;;;;;;;4917489;29;20509;-73
2022/06/14 08:16:54;;;;;;;4.28;1.10;;;;;;;;;;4913582;29;20055;-73
2022/06/14 08:19:44;;;;;;;6.47;1.55;;;;;;;;;;4900469;29;20075;-74
2022/06/14 08:22:15;;;;;;;4.88;0.90;;;;;;;;;;4887476;29;20043;-73
2022/06/14 08:24:58;;;;;;;9.65;1.33;;;;;;;;;;4914606;29;20504;-73
2022/06/14 08:27:31;;;;;;;8.02;1.60;;;;;;;;;;4914175;29;20449;-74
2022/06/14 08:30:06;;;;;;;7.40;1.38;;;;;;;;;;4914157;29;20039;-74
2022/06/14 08:32:44;;;;;;;8.80;1.25;;;;;;;;;;4914476;29;20028;-73
2022/06/14 08:35:35;;;;;;;5.40;1.15;;;;;;;;;;4918195;29;20172;-73
2022/06/14 08:38:12;;;;;;;8.18;1.15;;;;;;;;;;4912341;29;20062;-73
2022/06/14 08:40:52;;;;;;;4.97;1.38;;;;;;;;;;4916183;29;20080;-73
2022/06/14 08:43:26;;;;;;;4.35;1.10;;;;;;;;;;4920836;29;20460;-74
2022/06/14 08:46:11;;;;;;;3.78;1.40;;;;;;;;;;4910320;29;20044;-74
2022/06/14 08:48:58;;;;;;;6.75;1.27;;;;;;;;;;4917300;29;20059;-73
2022/06/14 08:51:34;;;;;;;4.45;1.42;;;;;;;;;;4916072;29;20528;-74
2022/06/14 08:54:03;;;;;;;6.43;0.90;;;;;;;;;;4914053;29;20047;-73
2022/06/14 08:56:47;;;;;;;5.53;1.25;;;;;;;;;;4919527;29;20047;-74
2022/06/14 08:59:36;;;;;;;3.08;1.00;;;;;;;;;;4914739;29;20044;-73
2022/06/14 09:02:30;;;;;;;3.45;0.95;;;;;;;;;;4908965;29;20055;-74
2022/06/14 09:05:13;;;;;;;4.43;1.25;;;;;;;;;;4911109;29;20040;-74
2022/06/14 09:08:08;;;;;;;2.85;1.08;;;;;;;;;;4900550;29;20032;-74
2022/06/14 09:10:54;;;;;;;3.15;1.00;;;;;;;;;;4913340;29;20030;-73
2022/06/14 09:13:26;;;;;;;6.40;1.00;;;;;;;;;;4915401;29;20249;-74
2022/06/14 09:16:13;;;;;;;3.28;1.02;;;;;;;;;;4912809;29;20131;-74
2022/06/14 09:18:47;;;;;;;3.88;1.00;;;;;;;;;;4913030;29;20040;-74
2022/06/14 09:21:16;;;;;;;2.42;1.10;;;;;;;;;;4914857;29;20069;-74
2022/06/14 09:23:49;;;;;;;3.88;1.20;;;;;;;;;;4914907;29;20509;-74
2022/06/14 09:26:30;;;;;;;6.47;1.30;;;;;;;;;;4914779;29;20424;-74
2022/06/14 09:29:27;;;;;;;5.40;0.90;;;;;;;;;;4910522;29;20044;-74
2022/06/14 09:32:29;;;;;;;3.65;1.25;;;;;;;;;;4915409;29;20086;-74
2022/06/14 09:35:24;;;;;;;1.98;0.85;;;;;;;;;;4880174;29;20095;-75
2022/06/14 09:38:14;;;;;;;1.45;0.88;;;;;;;;;;4911952;29;20127;-74
2022/06/14 09:41:01;;;;;;;2.78;1.05;;;;;;;;;;4911034;29;20032;-74
2022/06/14 09:43:56;;;;;;;2.83;1.10;;;;;;;;;;4915950;29;20051;-74
2022/06/14 09:46:43;;;;;;;2.70;0.80;;;;;;;;;;4918958;29;20123;-74
2022/06/14 09:49:31;;;;;;;2.33;0.90;;;;;;;;;;4920591;29;20345;-74
2022/06/14 09:52:11;;;;;;;5.07;1.30;;;;;;;;;;4910881;29;20131;-74
2022/06/14 09:54:57;;;;;;;5.57;1.00;;;;;;;;;;4912467;29;20040;-73
2022/06/14 09:57:38;;;;;;;2.92;0.95;;;;;;;;;;4914945;29;20571;-74
2022/06/14 10:00:37;;;;;;;3.80;0.90;;;;;;;;;;4907034;29;20123;-73
2022/06/14 10:03:20;;;;;;;3.08;0.70;;;;;;;;;;4910701;29;20350;-73
2022/06/14 10:06:15;;;;;;;3.13;1.27;;;;;;;;;;4913834;29;20371;-73
2022/06/14 10:09:01;;;;;;;2.50;0.80;;;;;;;;;;4911222;29;20096;-73
2022/06/14 10:11:45;;;;;;;2.25;0.80;;;;;;;;;;4912859;29;20043;-73
2022/06/14 10:14:27;;;;;;;3.38;1.10;;;;;;;;;;4914245;29;20044;-72
2022/06/14 10:17:03;;;;;;;5.20;1.20;;;;;;;;;;4910156;29;20516;-73
2022/06/14 10:19:57;;;;;;;2.42;0.90;;;;;;;;;;4913678;29;20047;-74
2022/06/14 10:22:40;;;;;;;1.95;1.00;;;;;;;;;;4909047;29;20051;-75
2022/06/14 10:25:22;;;;;;;;;;;;;;;;;;4913172;29;20119;-72
2022/06/14 10:28:11;;;;;;;3.97;0.80;;;;;;;;;;4915240;29;20482;-74
2022/06/14 10:30:52;;;;;;;4.47;1.10;;;;;;;;;;4911609;29;20059;-73
2022/06/14 10:33:29;;;;;;;4.70;1.17;;;;;;;;;;4911749;29;20048;-75
2022/06/14 10:35:55;;;;;;;5.28;1.30;;;;;;;;;;4910180;29;20048;-74
2022/06/14 10:38:51;;;;;;;8.88;1.40;;;;;;;;;;4909044;29;20084;-74
2022/06/14 10:41:32;;;;;;;3.50;1.17;;;;;;;;;;4915046;29;20563;-74
2022/06/14 10:44:19;;;;;;;3.45;1.10;;;;;;;;;;4911654;29;20135;-75
2022/06/14 10:47:18;;;;;;;2.70;1.08;;;;;;;;;;4914123;29;20404;-73
2022/06/14 10:50:10;;;;;;;9.32;1.20;;;;;;;;;;4914047;29;20047;-73
2022/06/14 10:52:46;;;;;;;8.43;1.48;;;;;;;;;;4901901;29;20044;-74
2022/06/14 10:55:23;;;;;;;13.07;1.35;;;;;;;;;;4895111;29;20040;-73
2022/06/14 10:57:49;;;;;;;3.72;1.30;;;;;;;;;;4912646;29;20043;-74
2022/06/14 11:00:31;;;;;;;4.28;1.10;;;;;;;;;;4912365;29;20047;-73
2022/06/14 11:03:19;;;;;;;3.50;1.00;;;;;;;;;;4907281;29;20383;-73
2022/06/14 11:05:52;;;;;;;6.93;1.08;;;;;;;;;;4897474;29;20044;-73
2022/06/14 11:08:41;;;;;;;2.22;0.90;;;;;;;;;;4913598;29;20103;-75
2022/06/14 11:11:18;;;;;;;4.32;1.10;;;;;;;;;;4910659;29;20040;-74
2022/06/14 11:14:09;;;;;;;5.40;0.93;;;;;;;;;;4913524;29;20074;-73
2022/06/14 11:16:53;;;;;;;4.25;1.20;;;;;;;;;;4913972;29;20370;-73
2022/06/14 11:19:36;;;;;;;4.78;1.00;;;;;;;;;;4911802;29;20024;-74
2022/06/14 11:22:37;;;;;;;4.97;0.80;;;;;;;;;;4914327;29;20044;-72
2022/06/14 11:25:38;;;;;;;3.40;0.70;;;;;;;;;;4898991;29;20106;-74
2022/06/14 11:28:17;;;;;;;2.58;0.70;;;;;;;;;;4892519;29;20135;-74
2022/06/14 11:31:01;;;;;;;5.90;1.13;;;;;;;;;;4913063;29;20040;-75
2022/06/14 11:33:56;;;;;;;2.05;0.80;;;;;;;;;;4913120;29;20104;-73
2022/06/14 11:36:46;;;;;;;1.73;1.13;;;;;;;;;;4910200;29;20064;-72
2022/06/14 11:39:24;;;;;;;2.80;0.90;;;;;;;;;;4911299;29;20037;-74
2022/06/14 11:41:51;;;;;;;3.58;1.00;;;;;;;;;;4909364;29;20044;-73
2022/06/14 11:44:49;;;;;;;7.05;1.20;;;;;;;;;;4914048;29;20529;-73
2022/06/14 11:47:21;;;;;;;4.00;1.20;;;;;;;;;;4915080;29;20522;-73
2022/06/14 11:50:06;;;;;;;2.10;0.95;;;;;;;;;;4911922;29;20139;-73
2022/06/14 11:53:05;;;;;;;3.15;0.80;;;;;;;;;;4914401;29;20031;-73
2022/06/14 11:55:47;;;;;;;4.47;0.90;;;;;;;;;;4914773;29;20077;-74
2022/06/14 11:58:35;;;;;;;1.20;0.93;;;;;;;;;;4915623;29;20032;-72
2022/06/14 12:01:31;;;;;;;4.13;1.50;;;;;;;;;;4888278;29;20072;-72
2022/06/14 12:04:27;;;;;;;3.53;0.98;;;;;;;;;;4906518;29;20127;-72
2022/06/14 12:07:38;;;;;;;2.67;0.63;;;;;;;;;;4921591;29;20412;-73
2022/06/14 12:10:42;;;;;;;4.70;1.08;;;;;;;;;;4912168;29;20416;-72
2022/06/14 12:13:45;;;;;;;4.05;1.10;;;;;;;;;;4914821;29;20039;-71
2022/06/14 12:16:16;;;;;;;4.82;1.00;;;;;;;;;;4914523;29;20198;-72
2022/06/14 12:18:49;;;;;;;7.38;1.10;;;;;;;;;;4914493;29;20048;-72
2022/06/14 12:21:28;;;;;;;3.22;0.93;;;;;;;;;;4912701;29;20076;-72
2022/06/14 12:24:00;;;;;;;9.32;1.05;;;;;;;;;;4916809;29;20046;-72
2022/06/14 12:26:49;;;;;;;2.50;1.10;;;;;;;;;;4914932;29;20092;-73
2022/06/14 12:29:27;;;;;;;6.80;0.75;;;;;;;;;;4915902;29;20048;-73
2022/06/14 12:31:53;;;;;;;4.68;1.10;;;;;;;;;;4915728;29;20044;-73
2022/06/14 12:34:28;;;;;;;4.38;1.10;;;;;;;;;;4913998;29;20100;-74
2022/06/14 12:37:10;;;;;;;3.90;0.90;;;;;;;;;;4913328;29;20048;-72
2022/06/14 12:39:46;;;;;;;;;;;;;;;;;;4913978;29;20119;-70
2022/06/14 12:42:21;;;;;;;4.55;1.23;;;;;;;;;;4900648;29;19930;-72
2022/06/14 12:45:01;;;;;;;4.22;1.15;;;;;;;;;;4911805;29;20323;-73
2022/06/14 12:47:47;;;;;;;3.78;1.05;;;;;;;;;;4913329;29;20051;-72
2022/06/14 12:50:35;;;;;;;3.75;1.30;;;;;;;;;;4913909;29;20484;-73
2022/06/14 12:53:17;;;;;;;1.95;0.73;;;;;;;;;;4914959;29;20056;-73
2022/06/14 12:55:52;;;;;;;2.83;1.00;;;;;;;;;;4915736;29;20501;-74
2022/06/14 12:58:30;;;;;;;4.00;1.08;;;;;;;;;;4915231;29;20028;-74
2022/06/14 13:01:03;;;;;;;2.80;0.95;;;;;;;;;;4911405;29;20060;-73
2022/06/14 13:03:55;;;;;;;5.32;1.20;;;;;;;;;;4908854;29;20054;-74
2022/06/14 13:06:30;;;;;;;2.63;0.80;;;;;;;;;;4913544;29;20040;-74
2022/06/14 13:09:06;;;;;;;3.28;0.93;;;;;;;;;;4914615;29;20390;-71
2022/06/14 13:11:58;;;;;;;2.78;1.15;;;;;;;;;;4916397;29;20334;-72
2022/06/14 13:14:28;;;;;;;3.95;1.15;;;;;;;;;;4916335;29;20456;-74
2022/06/14 13:17:00;;;;;;;3.70;1.20;;;;;;;;;;4912275;29;20088;-73
2022/06/14 13:19:43;;;;;;;1.65;0.82;;;;;;;;;;4915412;29;20106;-73
2022/06/14 13:22:14;;;;;;;6.00;0.80;;;;;;;;;;4912612;29;20020;-71
2022/06/14 13:24:48;;;;;;;3.05;0.80;;;;;;;;;;4913844;29;20043;-74
2022/06/14 13:27:51;;;;;;;2.33;0.93;;;;;;;;;;4913686;29;20432;-74
2022/06/14 13:30:24;;;;;;;5.10;1.30;;;;;;;;;;4912703;29;20036;-73
2022/06/14 13:33:07;;;;;;;1.77;0.70;;;;;;;;;;4912723;29;20449;-73
2022/06/14 13:36:01;;;;;;;2.00;0.80;;;;;;;;;;4918274;29;20113;-74
2022/06/14 13:38:32;;;;;;;2.10;0.80;;;;;;;;;;4914455;29;20127;-73
2022/06/14 13:41:05;;;;;;;4.57;2.80;;;;;;;;;;4912133;29;20071;-73
2022/06/14 13:43:46;;;;;;;2.03;0.90;;;;;;;;;;4916097;29;20031;-71
2022/06/14 13:46:20;;;;;;;2.57;0.83;;;;;;;;;;4900999;29;20060;-72
2022/06/14 13:48:57;;;;;;;2.50;1.00;;;;;;;;;;4914976;29;20446;-72
2022/06/14 13:51:37;;;;;;;2.85;0.75;;;;;;;;;;4913018;29;20080;-73
2022/06/14 13:54:11;;;;;;;2.35;0.88;;;;;;;;;;4912982;29;20544;-72
2022/06/14 13:56:54;;;;;;;1.55;0.82;;;;;;;;;;4915629;29;20405;-72
2022/06/14 13:59:21;;;;;;;;;;;;;;;;;;4911870;29;20103;-73
2022/06/14 14:01:56;;;;;;;4.63;1.08;;;;;;;;;;4912732;29;20056;-73
2022/06/14 14:04:42;;;;;;;1.50;0.70;;;;;;;;;;4913163;29;20389;-73
2022/06/14 14:07:22;;;;;;;2.38;0.90;;;;;;;;;;4912205;29;20541;-71
2022/06/14 14:10:18;;;;;;;5.28;1.08;;;;;;;;;;4914498;29;20091;-72
2022/06/14 14:13:05;;;;;;;1.40;0.90;;;;;;;;;;4910277;29;20670;-72
2022/06/14 14:15:43;;;;;;;1.80;0.90;;;;;;;;;;4912187;29;20042;-72
2022/06/14 14:18:11;;;;;;;3.78;1.10;;;;;;;;;;4913552;29;20071;-72
2022/06/14 14:21:23;;;;;;;3.92;1.13;;;;;;;;;;4919311;29;20508;-72
2022/06/14 14:24:21;;;;;;;3.03;1.20;;;;;;;;;;4876302;29;20059;-73
2022/06/14 14:27:17;;;;;;;2.97;1.13;;;;;;;;;;4900819;29;20071;-73
2022/06/14 14:30:06;;;;;;;1.75;0.90;;;;;;;;;;4898307;29;20044;-75
2022/06/14 14:32:51;;;;;;;3.33;1.00;;;;;;;;;;4911633;29;20536;-74
2022/06/14 14:35:41;;;;;;;1.98;1.10;;;;;;;;;;4910828;29;20429;-73
2022/06/14 14:38:33;;;;;;;1.98;1.02;;;;;;;;;;4912600;29;20042;-71
2022/06/14 14:43:52;;;;;;;3.28;0.98;;;;;;;;;;4891113;29;20159;-72
2022/06/14 14:46:25;;;;;;;1.15;0.90;;;;;;;;;;4890609;29;20045;-71
2022/06/14 14:49:09;;;;;;;6.15;1.40;;;;;;;;;;4891340;29;20049;-72
2022/06/14 14:51:34;;;;;;;4.38;1.50;;;;;;;;;;4888485;29;20041;-72
2022/06/14 14:54:16;;;;;;;3.00;1.10;;;;;;;;;;4892769;29;20048;-72
2022/06/14 14:56:47;;;;;;;3.15;1.10;;;;;;;;;;4891931;29;20716;-73
2022/06/14 14:59:40;;;;;;;4.03;1.10;;;;;;;;;;4889941;29;20159;-73
2022/06/14 15:05:23;;;;;;;6.85;1.20;;;;;;;;;;4891352;29;20055;-73
2022/06/14 15:08:18;;;;;;;6.50;1.48;;;;;;;;;;4888881;29;20037;-72
2022/06/14 15:11:02;;;;;;;6.18;1.30;;;;;;;;;;4884467;29;20678;-73
2022/06/14 15:13:33;;;;;;;3.83;1.35;;;;;;;;;;4913193;29;20056;-72
2022/06/14 15:15:58;;;;;;;5.30;1.48;;;;;;;;;;4911451;29;20048;-74
2022/06/14 15:21:30;;;;;;;4.50;1.40;;;;;;;;;;4911909;29;20058;-73
2022/06/14 15:24:30;;;;;;;3.95;1.60;;;;;;;;;;4913497;29;20040;-72
2022/06/14 15:26:59;;;;;;;6.50;1.58;;;;;;;;;;4912326;29;20040;-72
2022/06/14 15:29:35;;;;;;;4.15;1.60;;;;;;;;;;4915587;29;20071;-72
2022/06/14 15:32:04;;;;;;;8.18;1.50;;;;;;;;;;4913120;29;20456;-72
2022/06/14 15:34:40;;;;;;;7.15;1.65;;;;;;;;;;4918760;29;20080;-73
2022/06/14 15:37:15;;;;;;;2.70;1.40;;;;;;;;;;4915034;29;20103;-73
2022/06/14 15:39:49;;;;;;;3.03;1.58;;;;;;;;;;4914502;29;20044;-72
2022/06/14 15:42:31;;;;;;;5.90;1.40;;;;;;;;;;4915067;29;20131;-73
2022/06/14 15:44:59;;;;;;;2.83;1.15;;;;;;;;;;4915321;29;20034;-72
2022/06/14 15:47:36;;;;;;;5.68;1.42;;;;;;;;;;4918229;29;20040;-71
2022/06/14 15:50:03;;;;;;;3.15;1.25;;;;;;;;;;4914695;29;20385;-72
2022/06/14 15:52:32;;;;;;;4.05;1.20;;;;;;;;;;4900178;29;20032;-73
2022/06/14 15:55:07;;;;;;;2.05;1.52;;;;;;;;;;4915447;29;20082;-72
2022/06/14 15:57:39;;;;;;;5.47;1.58;;;;;;;;;;4914051;29;20103;-73
2022/06/14 16:00:21;;;;;;;4.63;1.40;;;;;;;;;;4913787;29;20505;-72
2022/06/14 16:03:05;;;;;;;2.95;1.10;;;;;;;;;;4915356;29;20099;-74
2022/06/14 16:05:52;;;;;;;3.38;1.50;;;;;;;;;;4920682;29;20043;-72
2022/06/14 16:08:24;;;;;;;3.45;1.25;;;;;;;;;;4918843;29;20040;-72